Time;durP1;ratioP1;P1;durP2;ratioP2;P2;SDS_P1;SDS_P2;PMS_P1;PMS_P2;Temp;Humidity;BMP_temperature;BMP_pressure;BME280_temperature;BME280_humidity;BME280_pressure;Samples;Min_cycle;Max_cycle;Signal;HPM_P1;HPM_P2
2024/03/28 00:02:15;;;;;;;7.72;5.15;;;;;;;10.89;56.54;98603.78;4953226;28;124132;-63
2024/03/28 00:04:41;;;;;;;5.93;4.65;;;;;;;10.88;56.55;98597.63;4952776;28;114586;-63
2024/03/28 00:07:07;;;;;;;6.70;4.75;;;;;;;10.89;56.77;98598.47;4953267;28;113945;-63
2024/03/28 00:09:34;;;;;;;7.75;5.30;;;;;;;10.90;56.66;98593.03;4951631;28;124385;-63
2024/03/28 00:12:01;;;;;;;6.28;4.60;;;;;;;10.90;56.64;98589.56;4945293;28;124359;-65
2024/03/28 00:14:28;;;;;;;6.00;4.40;;;;;;;10.90;56.66;98585.09;4951672;28;114256;-65
2024/03/28 00:16:54;;;;;;;6.45;4.20;;;;;;;10.90;56.63;98573.66;4950435;28;113648;-64
2024/03/28 00:19:21;;;;;;;5.68;4.07;;;;;;;10.91;56.68;98564.75;4954405;28;125764;-64
2024/03/28 00:21:47;;;;;;;6.72;4.22;;;;;;;10.93;56.60;98552.22;4952334;28;122866;-64
2024/03/28 00:24:13;;;;;;;5.20;4.00;;;;;;;10.95;56.60;98539.69;4951374;28;115537;-64
2024/03/28 00:26:39;;;;;;;6.15;4.38;;;;;;;10.96;56.50;98530.78;4950885;28;115438;-64
2024/03/28 00:29:06;;;;;;;6.63;4.22;;;;;;;10.96;56.45;98533.41;4952585;28;122972;-64
2024/03/28 00:31:32;;;;;;;5.93;4.13;;;;;;;10.98;56.27;98536.81;4952634;28;122704;-64
2024/03/28 00:33:58;;;;;;;5.00;3.88;;;;;;;10.98;56.34;98534.16;4956291;28;114350;-65
2024/03/28 00:36:25;;;;;;;4.85;3.72;;;;;;;11.00;56.33;98532.22;4956591;28;113573;-64
2024/03/28 00:38:51;;;;;;;7.07;4.05;;;;;;;11.01;56.20;98533.88;4950455;28;124496;-64
2024/03/28 00:41:17;;;;;;;6.00;4.03;;;;;;;11.00;56.28;98526.91;4949381;28;124093;-65
2024/03/28 00:43:44;;;;;;;5.95;4.50;;;;;;;11.00;56.05;98532.22;4951454;28;114334;-65
2024/03/28 00:46:11;;;;;;;5.80;3.90;;;;;;;11.00;56.09;98536.66;4950260;28;114343;-65
2024/03/28 00:48:37;;;;;;;5.20;4.13;;;;;;;10.98;55.89;98533.28;4951115;28;124300;-65
2024/03/28 00:51:03;;;;;;;5.90;4.43;;;;;;;10.96;55.95;98530.78;4951957;28;124491;-65
2024/03/28 00:53:30;;;;;;;5.00;3.95;;;;;;;10.92;55.99;98529.34;4950517;28;114233;-64
2024/03/28 00:55:59;;;;;;;5.50;4.10;;;;;;;10.90;56.14;98520.69;4952980;28;113130;-64
2024/03/28 00:58:25;;;;;;;5.63;4.10;;;;;;;10.89;56.22;98513.75;4946322;28;124746;-64
2024/03/28 01:00:52;;;;;;;6.25;4.10;;;;;;;10.86;56.21;98514.00;4954166;28;124168;-65
2024/03/28 01:03:18;;;;;;;5.50;4.38;;;;;;;10.84;56.12;98510.63;4948429;28;114400;-64
2024/03/28 01:05:57;;;;;;;6.68;4.53;;;;;;;10.81;56.09;98510.88;4948210;28;113888;-64
2024/03/28 01:08:23;;;;;;;6.32;4.80;;;;;;;10.80;56.17;98495.97;4946680;28;124466;-64
2024/03/28 01:10:51;;;;;;;7.55;4.30;;;;;;;10.79;56.10;98491.63;4945990;28;124760;-64
2024/03/28 01:13:17;;;;;;;7.32;4.70;;;;;;;10.81;56.23;98495.00;4947253;28;115221;-64
2024/03/28 01:15:43;;;;;;;5.75;4.38;;;;;;;10.82;56.25;98475.50;4950337;28;115060;-64
2024/03/28 01:18:10;;;;;;;8.20;4.85;;;;;;;10.82;56.30;98468.38;4958921;28;124701;-65
2024/03/28 01:20:36;;;;;;;6.88;4.63;;;;;;;10.81;56.18;98469.38;4944497;28;122977;-64
2024/03/28 01:23:03;;;;;;;6.45;4.82;;;;;;;10.78;56.11;98468.78;4948562;28;114745;-64
2024/03/28 01:25:29;;;;;;;6.93;4.45;;;;;;;10.78;56.10;98474.09;4949412;28;113986;-64
2024/03/28 01:27:55;;;;;;;7.40;5.22;;;;;;;10.76;56.15;98470.72;4949669;28;124390;-64
2024/03/28 01:30:23;;;;;;;6.45;4.10;;;;;;;10.75;56.29;98474.31;4951016;28;122380;-64
2024/03/28 01:32:49;;;;;;;6.18;4.80;;;;;;;10.76;56.20;98470.72;4948904;28;114277;-64
2024/03/28 01:35:15;;;;;;;6.13;4.25;;;;;;;10.77;56.18;98469.75;4951256;28;113975;-65
2024/03/28 01:37:42;;;;;;;6.53;4.13;;;;;;;10.76;56.14;98465.44;4948681;28;124167;-64
2024/03/28 01:40:09;;;;;;;7.80;4.60;;;;;;;10.76;56.19;98460.13;4955850;28;125110;-64
2024/03/28 01:42:35;;;;;;;7.40;4.30;;;;;;;10.75;56.14;98458.44;4950694;28;114503;-64
2024/03/28 01:45:02;;;;;;;5.18;3.85;;;;;;;10.75;56.27;98453.97;4953465;28;112971;-64
2024/03/28 01:47:29;;;;;;;6.47;3.95;;;;;;;10.74;56.10;98451.47;4951468;28;123740;-64
2024/03/28 01:49:55;;;;;;;5.68;3.65;;;;;;;10.73;56.11;98449.78;4955262;28;124673;-64
2024/03/28 01:52:22;;;;;;;5.57;3.90;;;;;;;10.71;56.22;98447.28;4953353;28;114117;-64
2024/03/28 01:54:48;;;;;;;4.72;3.70;;;;;;;10.70;56.28;98451.75;4955238;28;114719;-64
2024/03/28 01:57:15;;;;;;;5.72;3.92;;;;;;;10.70;56.30;98462.31;4954243;28;124473;-64
2024/03/28 01:59:42;;;;;;;5.13;3.88;;;;;;;10.69;56.16;98450.03;4953996;28;123816;-64
2024/03/28 02:02:09;;;;;;;7.30;3.97;;;;;;;10.66;56.21;98460.91;4944449;28;115240;-64
2024/03/28 02:04:35;;;;;;;6.20;3.60;;;;;;;10.64;56.22;98454.91;4954565;28;114434;-65
2024/03/28 02:07:02;;;;;;;7.20;3.90;;;;;;;10.61;56.30;98451.69;4951971;28;124304;-64
2024/03/28 02:09:29;;;;;;;5.07;3.35;;;;;;;10.59;56.25;98448.31;4938780;28;123085;-64
2024/03/28 02:11:56;;;;;;;4.55;3.33;;;;;;;10.56;56.33;98451.22;4954172;28;114841;-64
2024/03/28 02:14:22;;;;;;;6.85;3.80;;;;;;;10.57;56.28;98456.38;4970381;28;113295;-64
2024/03/28 02:16:49;;;;;;;4.13;3.13;;;;;;;10.56;56.20;98445.91;4954568;28;124467;-64
2024/03/28 02:19:15;;;;;;;4.60;3.22;;;;;;;10.55;56.26;98446.88;4952565;28;123614;-65
2024/03/28 02:21:46;;;;;;;5.88;3.40;;;;;;;10.53;56.32;98444.38;4952990;28;114185;-65
2024/03/28 02:24:13;;;;;;;6.80;3.60;;;;;;;10.51;56.16;98441.03;4950763;28;112840;-65
2024/03/28 02:26:39;;;;;;;5.22;3.30;;;;;;;10.50;56.36;98440.16;4963816;28;124337;-64
2024/03/28 02:29:06;;;;;;;4.22;3.10;;;;;;;10.50;56.26;98439.31;4949764;28;124309;-64
2024/03/28 02:31:32;;;;;;;7.60;3.05;;;;;;;10.50;56.44;98434.03;4952883;28;114732;-64
2024/03/28 02:33:58;;;;;;;4.00;3.03;;;;;;;10.51;56.48;98441.03;4965506;28;114605;-63
2024/03/28 02:36:24;;;;;;;4.35;3.10;;;;;;;10.51;56.28;98441.03;4929933;28;123018;-63
2024/03/28 02:38:51;;;;;;;5.55;3.05;;;;;;;10.52;56.43;98443.50;4949749;28;124003;-63
2024/03/28 02:41:21;;;;;;;5.55;3.17;;;;;;;10.53;56.59;98428.50;4954656;28;113167;-65
2024/03/28 02:43:47;;;;;;;4.65;3.20;;;;;;;10.55;56.44;98436.28;4950659;28;114286;-64
2024/03/28 02:46:14;;;;;;;5.82;3.47;;;;;;;10.55;56.53;98437.16;4953355;28;125223;-64
2024/03/28 02:48:40;;;;;;;6.18;3.30;;;;;;;10.56;56.51;98438.81;4952002;28;124130;-64
2024/03/28 02:51:06;;;;;;;4.25;3.10;;;;;;;10.59;56.74;98432.44;4952248;28;115888;-65
2024/03/28 02:53:33;;;;;;;4.40;2.88;;;;;;;10.60;56.84;98427.00;4952257;28;115139;-64
2024/03/28 02:55:59;;;;;;;4.38;3.00;;;;;;;10.63;56.64;98416.16;4949304;28;124292;-64
2024/03/28 02:58:25;;;;;;;6.35;3.35;;;;;;;10.64;56.59;98417.84;4974810;28;123915;-65
2024/03/28 03:00:52;;;;;;;4.45;3.30;;;;;;;10.66;56.76;98407.97;4936892;28;114626;-64
2024/03/28 03:03:19;;;;;;;7.35;3.40;;;;;;;10.68;56.66;98411.31;4946803;28;113907;-64
2024/03/28 03:05:48;;;;;;;8.77;3.30;;;;;;;10.68;56.55;98392.78;4965538;28;123878;-64
2024/03/28 03:08:15;;;;;;;5.72;3.38;;;;;;;10.72;56.67;98396.03;4961346;28;124628;-65
2024/03/28 03:10:41;;;;;;;4.70;3.03;;;;;;;10.75;56.51;98389.63;4953424;28;115086;-65
2024/03/28 03:13:07;;;;;;;4.63;3.35;;;;;;;10.77;56.81;98382.38;4948001;28;114281;-64
2024/03/28 03:15:34;;;;;;;4.70;3.17;;;;;;;10.78;56.78;98384.91;4947830;28;125053;-65
2024/03/28 03:18:00;;;;;;;5.05;3.17;;;;;;;10.80;56.68;98372.38;4931100;28;123963;-65
2024/03/28 03:20:26;;;;;;;5.05;3.15;;;;;;;10.81;56.56;98373.19;4950714;28;116577;-65
2024/03/28 03:23:04;;;;;;;3.88;3.10;;;;;;;10.80;56.33;98363.59;4952777;28;114016;-65
2024/03/28 03:25:41;;;;;;;4.10;2.88;;;;;;;10.80;56.33;98361.78;4963561;28;124094;-66
2024/03/28 03:36:27;;;;;;;4.30;2.80;;;;;;;10.72;56.07;98343.06;4941065;28;124401;-66
2024/03/28 03:38:53;;;;;;;6.20;3.30;;;;;;;10.71;56.20;98333.44;4948516;28;124151;-66
2024/03/28 03:41:19;;;;;;;4.93;3.03;;;;;;;10.67;56.23;98330.22;4966090;28;114991;-65
2024/03/28 03:43:45;;;;;;;5.75;2.88;;;;;;;10.64;56.13;98325.19;4951576;28;116172;-66
2024/03/28 03:46:12;;;;;;;6.55;3.17;;;;;;;10.63;56.19;98318.22;4936493;28;120729;-65
2024/03/28 03:48:38;;;;;;;6.70;3.30;;;;;;;10.61;56.30;98312.22;4953743;28;123819;-65
2024/03/28 03:51:05;;;;;;;5.05;3.40;;;;;;;10.60;56.43;98317.63;4950921;28;113834;-65
2024/03/28 03:53:31;;;;;;;5.28;3.30;;;;;;;10.58;56.37;98309.00;4951479;28;114189;-65
2024/03/28 03:55:57;;;;;;;4.70;3.17;;;;;;;10.57;56.61;98318.75;4952262;28;124828;-65
2024/03/28 03:58:24;;;;;;;5.65;3.45;;;;;;;10.57;56.38;98302.88;4951792;28;124615;-65
2024/03/28 04:00:50;;;;;;;5.78;3.50;;;;;;;10.58;56.62;98299.25;4948772;28;113377;-65
2024/03/28 04:03:17;;;;;;;5.97;3.63;;;;;;;10.56;56.53;98295.88;4968771;28;114221;-65
2024/03/28 04:05:43;;;;;;;5.05;3.55;;;;;;;10.56;56.49;98306.47;4950435;28;123915;-65
2024/03/28 04:08:10;;;;;;;6.32;3.33;;;;;;;10.56;56.61;98301.19;4953078;28;124297;-65
2024/03/28 04:10:36;;;;;;;5.65;3.40;;;;;;;10.58;56.70;98301.88;4953225;28;113622;-66
2024/03/28 04:13:02;;;;;;;6.00;3.42;;;;;;;10.60;56.70;98296.47;4935487;28;113003;-65
2024/03/28 04:15:29;;;;;;;3.97;2.92;;;;;;;10.61;56.76;98293.69;4953048;28;124594;-65
2024/03/28 04:17:55;;;;;;;4.22;2.90;;;;;;;10.59;56.63;98285.06;4950245;28;124229;-65
2024/03/28 04:20:21;;;;;;;4.43;2.80;;;;;;;10.59;56.65;98279.75;4950561;28;114359;-65
2024/03/28 04:22:48;;;;;;;4.90;2.78;;;;;;;10.59;56.62;98290.34;4951676;28;114077;-65
2024/03/28 04:25:15;;;;;;;3.92;2.55;;;;;;;10.58;56.70;98286.00;4954433;28;123849;-65
2024/03/28 04:27:41;;;;;;;4.13;2.65;;;;;;;10.58;56.54;98278.06;4954642;28;123865;-67
2024/03/28 04:30:07;;;;;;;4.82;2.85;;;;;;;10.58;56.43;98283.34;4947655;28;114428;-65
2024/03/28 04:32:34;;;;;;;6.90;2.80;;;;;;;10.57;56.47;98281.69;4963936;28;114906;-65
2024/03/28 04:35:00;;;;;;;6.05;3.03;;;;;;;10.56;56.58;98280.00;4949264;28;124034;-66
2024/03/28 04:37:26;;;;;;;5.45;2.60;;;;;;;10.55;56.52;98273.06;4950778;28;125271;-65
2024/03/28 04:39:52;;;;;;;5.55;2.95;;;;;;;10.54;56.72;98274.00;4952584;28;114528;-65
2024/03/28 04:42:19;;;;;;;5.20;3.15;;;;;;;10.52;56.50;98274.13;4952892;28;114190;-65
2024/03/28 04:44:46;;;;;;;4.80;2.83;;;;;;;10.51;56.42;98255.78;4951722;28;124102;-66
2024/03/28 04:47:14;;;;;;;4.20;3.10;;;;;;;10.50;56.36;98254.09;4950118;28;124502;-65
2024/03/28 04:49:42;;;;;;;5.85;3.17;;;;;;;10.48;56.69;98256.03;4952804;28;114315;-65
2024/03/28 04:52:09;;;;;;;5.32;3.40;;;;;;;10.46;56.37;98252.69;4953110;28;113796;-65
2024/03/28 04:54:35;;;;;;;5.38;3.20;;;;;;;10.45;56.46;98251.00;4951477;28;124408;-66
2024/03/28 04:57:01;;;;;;;5.15;3.05;;;;;;;10.43;56.41;98245.00;4951927;28;124689;-66
2024/03/28 04:59:27;;;;;;;5.18;3.42;;;;;;;10.41;56.62;98239.81;4941739;28;113270;-65
2024/03/28 05:01:54;;;;;;;4.53;3.20;;;;;;;10.42;56.64;98240.69;4955425;28;114846;-65
2024/03/28 05:04:20;;;;;;;4.25;2.58;;;;;;;10.41;56.38;98236.34;4947721;28;124334;-66
2024/03/28 05:06:47;;;;;;;5.10;2.60;;;;;;;10.40;56.53;98232.03;4951545;28;123036;-66
2024/03/28 05:09:13;;;;;;;4.10;2.50;;;;;;;10.38;56.46;98228.66;4952955;28;114811;-65
2024/03/28 05:11:40;;;;;;;3.75;2.35;;;;;;;10.38;56.31;98223.38;4951148;28;114021;-66
2024/03/28 05:14:06;;;;;;;4.32;2.30;;;;;;;10.36;56.55;98225.31;4963970;28;124741;-65
2024/03/28 05:16:34;;;;;;;4.55;2.60;;;;;;;10.36;56.37;98220.03;4945637;28;123940;-66
2024/03/28 05:19:00;;;;;;;8.18;2.22;;;;;;;10.35;56.42;98207.78;4944890;28;116041;-65
2024/03/28 05:21:26;;;;;;;4.15;2.55;;;;;;;10.33;56.24;98206.09;4962993;28;115185;-66
2024/03/28 05:23:54;;;;;;;5.18;2.60;;;;;;;10.32;56.20;98204.44;4949800;28;124033;-66
2024/03/28 05:26:20;;;;;;;4.00;2.25;;;;;;;10.32;56.33;98204.44;4969409;28;124422;-66
2024/03/28 05:28:47;;;;;;;5.90;2.50;;;;;;;10.32;56.11;98199.16;4949353;28;114361;-65
2024/03/28 05:31:16;;;;;;;5.65;2.65;;;;;;;10.29;56.28;98196.72;4950523;28;113867;-65
2024/03/28 05:33:43;;;;;;;6.38;2.60;;;;;;;10.29;56.16;98194.09;4949222;28;123912;-65
2024/03/28 05:36:10;;;;;;;4.45;2.70;;;;;;;10.29;56.38;98198.53;4948689;28;124278;-66
2024/03/28 05:38:37;;;;;;;5.15;2.65;;;;;;;10.28;56.39;98202.13;4947979;28;114365;-65
2024/03/28 05:41:04;;;;;;;4.28;2.47;;;;;;;10.28;56.13;98202.13;4951186;28;114297;-66
2024/03/28 05:43:30;;;;;;;3.88;2.30;;;;;;;10.27;56.22;98201.31;4949566;28;124105;-65
2024/03/28 05:45:56;;;;;;;4.63;2.25;;;;;;;10.26;56.13;98204.91;4946936;28;123993;-66
2024/03/28 05:48:24;;;;;;;4.53;2.88;;;;;;;10.26;56.29;98210.19;4952960;28;113186;-65
2024/03/28 05:50:51;;;;;;;5.68;2.80;;;;;;;10.25;56.30;98227.06;4948009;28;114631;-65
2024/03/28 05:53:18;;;;;;;6.03;2.65;;;;;;;10.25;56.23;98248.22;4954730;28;124244;-65
2024/03/28 05:55:45;;;;;;;4.53;2.80;;;;;;;10.24;56.06;98249.19;4972670;28;123672;-65
2024/03/28 05:58:11;;;;;;;4.63;2.17;;;;;;;10.23;56.20;98255.47;4952105;28;115025;-65
2024/03/28 06:00:37;;;;;;;3.65;2.20;;;;;;;10.24;56.28;98262.41;4956875;28;113055;-66
2024/03/28 06:03:04;;;;;;;4.15;2.40;;;;;;;10.24;56.31;98259.75;4936495;28;123948;-65
2024/03/28 06:05:31;;;;;;;5.80;2.58;;;;;;;10.23;56.14;98265.22;4949261;28;124817;-65
2024/03/28 06:07:57;;;;;;;8.57;2.63;;;;;;;10.23;56.23;98271.31;4945158;28;116131;-65
2024/03/28 06:10:24;;;;;;;4.28;2.47;;;;;;;10.23;56.28;98273.97;4953164;28;115741;-65
2024/03/28 06:12:50;;;;;;;4.43;2.60;;;;;;;10.24;56.11;98270.34;4964552;28;124773;-65
2024/03/28 06:15:17;;;;;;;4.10;2.28;;;;;;;10.26;56.37;98273.69;4935411;28;124537;-65
2024/03/28 06:17:43;;;;;;;4.95;2.25;;;;;;;10.27;56.42;98259.50;4950723;28;114853;-65
2024/03/28 06:20:11;;;;;;;6.10;2.78;;;;;;;10.30;56.24;98258.41;4954095;28;113948;-66
2024/03/28 06:22:38;;;;;;;4.20;2.38;;;;;;;10.33;56.45;98253.72;4949572;28;124696;-66
2024/03/28 06:25:07;;;;;;;4.88;2.28;;;;;;;10.41;56.50;98254.88;4957083;28;123955;-66
2024/03/28 06:27:34;;;;;;;4.55;2.50;;;;;;;10.46;56.49;98263.25;4953595;28;115131;-65
2024/03/28 06:30:25;;;;;;;6.35;2.55;;;;;;;10.56;56.49;98253.53;4953193;28;114442;-65
2024/03/28 06:32:52;;;;;;;4.95;2.40;;;;;;;10.64;56.52;98245.78;4945712;28;124625;-66
2024/03/28 06:35:19;;;;;;;5.25;2.28;;;;;;;10.71;56.72;98257.50;4965671;28;124531;-64
2024/03/28 06:37:45;;;;;;;5.20;2.78;;;;;;;10.78;56.58;98246.41;4963108;28;114578;-64
2024/03/28 06:40:12;;;;;;;4.53;2.70;;;;;;;10.83;56.53;98245.03;4938137;28;114301;-64
2024/03/28 06:42:38;;;;;;;6.03;2.70;;;;;;;10.91;56.39;98241.69;4971069;28;123984;-65
2024/03/28 06:45:05;;;;;;;4.75;2.33;;;;;;;10.98;56.25;98237.53;4947300;28;123955;-64
2024/03/28 06:47:31;;;;;;;4.75;2.45;;;;;;;11.04;56.38;98236.97;4958935;28;114213;-65
2024/03/28 06:49:57;;;;;;;5.20;2.60;;;;;;;11.12;56.42;98227.53;4962345;28;113908;-64
2024/03/28 06:52:23;;;;;;;5.53;2.55;;;;;;;11.17;56.30;98230.56;4972603;28;125249;-66
2024/03/28 06:54:50;;;;;;;4.43;2.40;;;;;;;11.21;56.27;98221.41;4958986;28;123957;-66
2024/03/28 06:57:16;;;;;;;3.53;2.40;;;;;;;11.27;56.10;98226.13;4955007;28;115465;-65
2024/03/28 06:59:43;;;;;;;5.45;2.75;;;;;;;11.31;56.25;98232.81;4956028;28;114956;-65
2024/03/28 07:02:09;;;;;;;4.68;2.63;;;;;;;11.36;56.12;98230.59;4946697;28;123981;-65
2024/03/28 07:04:36;;;;;;;4.63;2.25;;;;;;;11.43;56.18;98226.44;4954749;28;123842;-65
2024/03/28 07:07:02;;;;;;;4.20;2.17;;;;;;;11.50;56.28;98238.13;4954202;28;114743;-66
2024/03/28 07:09:28;;;;;;;4.78;2.45;;;;;;;11.58;56.10;98241.91;4956522;28;113346;-65
2024/03/28 07:11:55;;;;;;;4.78;2.25;;;;;;;11.63;56.30;98237.03;4953520;28;123795;-66
2024/03/28 07:14:21;;;;;;;3.95;2.25;;;;;;;11.68;56.09;98234.81;4938593;28;123015;-66
2024/03/28 07:16:47;;;;;;;4.38;2.13;;;;;;;11.74;56.16;98239.53;4954164;28;114292;-65
2024/03/28 07:19:13;;;;;;;3.25;1.77;;;;;;;11.80;55.93;98244.25;4957754;28;113800;-65
2024/03/28 07:21:40;;;;;;;4.40;2.03;;;;;;;11.83;56.07;98244.00;4952631;28;123063;-65
2024/03/28 07:24:06;;;;;;;2.90;1.90;;;;;;;11.89;55.89;98237.28;4953593;28;124278;-65
2024/03/28 07:26:32;;;;;;;3.20;1.80;;;;;;;11.94;55.88;98244.84;4955092;28;114065;-65
2024/03/28 07:28:59;;;;;;;3.42;1.70;;;;;;;11.99;55.86;98247.91;4958182;28;113293;-66
2024/03/28 07:31:25;;;;;;;2.80;1.70;;;;;;;12.03;55.91;98254.59;4962535;28;124408;-65
2024/03/28 07:33:51;;;;;;;3.55;1.90;;;;;;;12.08;55.84;98257.66;4951907;28;123696;-65
2024/03/28 07:36:17;;;;;;;3.38;2.10;;;;;;;12.11;55.58;98257.41;4940154;28;113331;-65
2024/03/28 07:38:43;;;;;;;6.15;1.92;;;;;;;12.12;55.75;98261.69;4940894;28;113878;-66
2024/03/28 07:41:10;;;;;;;5.15;1.65;;;;;;;12.15;55.53;98253.47;4957617;28;124060;-65
2024/03/28 07:43:37;;;;;;;4.35;1.67;;;;;;;12.18;55.63;98258.47;4957268;28;123932;-65
2024/03/28 07:46:04;;;;;;;2.72;1.55;;;;;;;12.19;55.40;98265.47;4957832;28;115553;-65
2024/03/28 07:48:31;;;;;;;2.92;1.80;;;;;;;12.21;55.54;98265.31;4970253;28;114688;-66
2024/03/28 07:51:02;;;;;;;2.92;1.38;;;;;;;12.21;55.37;98262.69;4973939;28;123938;-65
2024/03/28 07:53:30;;;;;;;2.80;1.48;;;;;;;12.20;55.49;98267.13;4967720;28;123884;-65
2024/03/28 07:55:56;;;;;;;3.42;1.75;;;;;;;12.21;55.30;98276.78;4955790;28;114433;-65
2024/03/28 07:58:25;;;;;;;3.83;1.50;;;;;;;12.20;55.46;98277.75;4961504;28;114205;-63
2024/03/28 08:00:52;;;;;;;3.05;1.50;;;;;;;12.19;55.32;98281.38;4952950;28;123954;-63
2024/03/28 08:03:19;;;;;;;3.58;1.50;;;;;;;12.18;55.19;98279.69;4954940;28;123842;-63
2024/03/28 08:05:49;;;;;;;2.60;1.40;;;;;;;12.15;55.43;98280.00;4954635;28;114166;-65
2024/03/28 08:08:16;;;;;;;3.28;1.45;;;;;;;12.12;55.28;98280.28;4952236;28;114014;-64
2024/03/28 08:10:43;;;;;;;1.70;1.38;;;;;;;12.09;55.23;98275.25;4938020;28;123138;-64
2024/03/28 08:13:09;;;;;;;2.13;1.30;;;;;;;12.04;55.22;98280.97;4951498;28;124608;-64
2024/03/28 08:15:37;;;;;;;2.30;1.40;;;;;;;12.00;55.40;98281.44;4954347;28;114391;-64
2024/03/28 08:18:03;;;;;;;2.58;1.50;;;;;;;11.99;55.39;98285.03;4956691;28;114223;-64
2024/03/28 08:20:30;;;;;;;3.10;1.40;;;;;;;11.96;55.41;98280.88;4954837;28;123590;-64
2024/03/28 08:22:57;;;;;;;2.55;1.80;;;;;;;11.96;55.50;98290.63;4957535;28;123930;-64
2024/03/28 08:25:23;;;;;;;2.17;1.63;;;;;;;11.93;55.50;98285.63;4962835;28;114844;-65
2024/03/28 08:27:50;;;;;;;5.22;1.88;;;;;;;11.92;55.52;98286.56;4951369;28;113997;-64
2024/03/28 08:30:17;;;;;;;3.47;1.80;;;;;;;11.91;55.47;98287.56;4942663;28;123897;-64
2024/03/28 08:32:44;;;;;;;3.05;1.40;;;;;;;11.91;55.56;98282.28;4942858;28;124193;-65
2024/03/28 08:35:11;;;;;;;4.40;1.40;;;;;;;11.91;55.72;98283.09;4947350;28;115042;-64
2024/03/28 08:37:39;;;;;;;3.05;1.58;;;;;;;11.91;55.69;98284.91;4952793;28;115396;-64
2024/03/28 08:40:09;;;;;;;3.53;1.40;;;;;;;11.92;55.68;98289.22;4950895;28;124159;-65
2024/03/28 08:42:36;;;;;;;3.25;1.52;;;;;;;11.92;55.63;98274.16;4967994;28;124291;-64
2024/03/28 08:45:04;;;;;;;1.80;1.25;;;;;;;11.93;55.71;98285.63;4950488;28;96957;-64
2024/03/28 08:47:31;;;;;;;1.73;1.20;;;;;;;11.90;55.67;98280.59;4947394;28;113349;-64
2024/03/28 08:49:57;;;;;;;2.95;1.38;;;;;;;11.86;55.72;98286.13;4953848;28;124182;-64
2024/03/28 08:52:24;;;;;;;3.10;1.27;;;;;;;11.87;55.88;98293.13;4953651;28;123920;-64
2024/03/28 08:54:50;;;;;;;2.80;1.55;;;;;;;11.87;55.85;98287.81;4959720;28;114314;-64
2024/03/28 08:57:17;;;;;;;2.08;1.60;;;;;;;11.86;55.87;98286.13;4972816;22;113843;-63
2024/03/28 08:59:43;;;;;;;2.20;1.30;;;;;;;11.86;56.07;98301.22;4979205;28;124277;-63
2024/03/28 09:02:10;;;;;;;1.80;1.30;;;;;;;11.84;56.02;98304.00;4975344;28;124552;-63
2024/03/28 09:04:36;;;;;;;2.38;1.23;;;;;;;11.85;56.06;98297.72;4964602;28;113664;-63
2024/03/28 09:07:03;;;;;;;3.00;1.20;;;;;;;11.86;56.20;98302.03;4983226;28;113961;-63
2024/03/28 09:09:29;;;;;;;1.85;1.40;;;;;;;11.85;56.20;98305.69;4972212;28;123998;-63
2024/03/28 09:11:57;;;;;;;2.58;1.05;;;;;;;11.83;56.08;98318.25;4977830;28;123928;-63
2024/03/28 09:14:23;;;;;;;2.63;1.10;;;;;;;11.81;56.08;98314.91;4987429;28;114791;-63
2024/03/28 09:16:51;;;;;;;2.88;1.50;;;;;;;11.81;56.22;98309.59;4983124;28;114290;-63
2024/03/28 09:19:18;;;;;;;3.15;1.30;;;;;;;11.81;56.43;98314.91;4979153;28;124354;-63
2024/03/28 09:21:46;;;;;;;2.63;1.20;;;;;;;11.81;56.37;98325.50;4981257;28;124207;-63
2024/03/28 09:24:13;;;;;;;2.05;1.10;;;;;;;11.80;56.39;98329.13;4978589;28;115248;-64
2024/03/28 09:26:39;;;;;;;2.40;1.17;;;;;;;11.78;56.48;98325.78;4978741;28;114514;-63
2024/03/28 09:29:06;;;;;;;4.65;1.23;;;;;;;11.78;56.56;98331.06;4975318;28;124408;-64
2024/03/28 09:31:33;;;;;;;1.30;0.93;;;;;;;11.77;56.51;98334.72;4987594;28;124627;-64
2024/03/28 09:33:59;;;;;;;1.65;0.90;;;;;;;11.76;56.78;98348.94;4987276;28;114206;-63
2024/03/28 09:36:26;;;;;;;1.60;0.90;;;;;;;11.77;56.76;98345.34;4982272;28;114781;-63
2024/03/28 09:38:52;;;;;;;1.88;0.82;;;;;;;11.79;56.76;98353.13;4976318;28;124510;-63
2024/03/28 09:41:29;;;;;;;2.10;1.00;;;;;;;11.80;56.98;98354.81;4978961;28;124168;-63
2024/03/28 09:44:06;;;;;;;1.48;0.80;;;;;;;11.83;57.08;98354.53;4981772;28;114620;-63
2024/03/28 09:46:33;;;;;;;1.50;0.90;;;;;;;11.87;57.14;98351.47;4988009;28;114967;-63
2024/03/28 09:49:01;;;;;;;0.93;0.73;;;;;;;11.92;57.27;98352.88;4990685;28;124054;-63
2024/03/28 09:51:27;;;;;;;1.45;0.80;;;;;;;11.97;57.12;98355.97;4980775;28;123727;-64
2024/03/28 09:53:56;;;;;;;1.80;0.80;;;;;;;12.02;57.22;98359.06;4989850;28;114318;-64
2024/03/28 09:56:23;;;;;;;1.15;0.70;;;;;;;12.09;57.20;98365.44;4985784;28;114529;-63
2024/03/28 09:58:50;;;;;;;0.90;0.70;;;;;;;12.16;57.39;98369.22;4980536;28;124355;-63
2024/03/28 10:01:17;;;;;;;2.28;0.82;;;;;;;12.21;57.37;98374.94;4979902;28;123695;-63
2024/03/28 10:03:52;;;;;;;0.95;0.60;;;;;;;12.26;57.16;98377.16;4972301;28;113136;-63
2024/03/28 10:06:19;;;;;;;2.15;0.65;;;;;;;12.29;57.03;98381.38;4985775;28;111989;-63
2024/03/28 10:08:46;;;;;;;1.60;0.60;;;;;;;12.27;57.10;98385.00;4980459;28;124074;-63
2024/03/28 10:11:13;;;;;;;1.20;0.60;;;;;;;12.27;57.19;98406.22;4979355;28;124285;-64
2024/03/28 10:13:39;;;;;;;1.05;0.75;;;;;;;12.26;57.12;98415.19;4988585;28;115251;-64
2024/03/28 10:16:12;;;;;;;1.50;0.60;;;;;;;12.24;57.03;98422.44;4970878;28;115764;-64
2024/03/28 10:18:39;;;;;;;1.23;0.80;;;;;;;12.23;57.10;98423.41;4987054;28;123822;-64
2024/03/28 10:21:06;;;;;;;1.52;0.70;;;;;;;12.20;57.23;98447.56;4989911;28;124015;-64
2024/03/28 10:23:33;;;;;;;1.17;0.80;;;;;;;12.15;56.88;98446.31;4990532;28;113544;-64
2024/03/28 10:25:59;;;;;;;0.80;0.60;;;;;;;12.10;56.79;98452.03;4988798;28;113956;-64
2024/03/28 10:28:28;;;;;;;0.75;0.70;;;;;;;12.06;56.86;98450.66;4980049;28;124009;-64
2024/03/28 10:30:57;;;;;;;1.55;0.70;;;;;;;12.02;57.01;98449.25;4978389;28;124629;-64
2024/03/28 10:33:23;;;;;;;1.30;0.93;;;;;;;12.02;56.95;98454.56;4979911;28;114240;-64
2024/03/28 10:36:00;;;;;;;0.93;0.68;;;;;;;12.00;57.03;98467.13;4977154;28;113862;-63
2024/03/28 10:38:26;;;;;;;1.45;0.70;;;;;;;12.00;57.00;98473.25;4980839;28;124245;-63
2024/03/28 10:40:55;;;;;;;1.10;0.70;;;;;;;12.01;56.93;98479.38;4985007;28;125753;-63
2024/03/28 10:43:26;;;;;;;2.50;0.90;;;;;;;12.04;57.09;98500.34;4981295;28;114340;-63
2024/03/28 10:45:59;;;;;;;1.65;0.80;;;;;;;12.07;57.05;98495.63;4983344;28;113862;-63
2024/03/28 10:48:26;;;;;;;0.80;0.60;;;;;;;12.10;57.10;98491.84;4989639;28;124893;-63
2024/03/28 10:51:01;;;;;;;1.60;0.77;;;;;;;12.13;57.04;98503.97;4986709;28;123761;-63
2024/03/28 10:53:41;;;;;;;2.22;0.90;;;;;;;12.17;57.23;98505.41;4979715;28;114109;-63
2024/03/28 10:56:17;;;;;;;1.00;0.82;;;;;;;12.22;57.32;98508.47;4980566;28;113905;-63
2024/03/28 10:58:44;;;;;;;1.00;0.70;;;;;;;12.26;57.16;98521.34;4984282;28;123891;-63
2024/03/28 11:01:10;;;;;;;2.13;0.93;;;;;;;12.31;57.29;98517.44;4957894;28;123462;-63
2024/03/28 11:03:37;;;;;;;1.98;0.80;;;;;;;12.34;57.21;98506.53;4977774;28;115494;-63
2024/03/28 11:06:04;;;;;;;1.50;1.00;;;;;;;12.41;57.37;98507.66;4962584;28;115428;-63
2024/03/28 11:08:31;;;;;;;3.60;1.20;;;;;;;12.48;57.33;98514.09;4979000;28;124340;-63
2024/03/28 11:11:02;;;;;;;2.75;1.10;;;;;;;12.54;57.19;98518.00;4971854;28;124530;-63
2024/03/28 11:13:29;;;;;;;3.83;1.63;;;;;;;12.59;57.30;98524.56;4974545;28;114412;-64
2024/03/28 11:16:06;;;;;;;1.90;1.40;;;;;;;12.65;57.25;98531.97;4981527;28;114062;-63
2024/03/28 11:18:32;;;;;;;2.08;1.42;;;;;;;12.73;57.28;98533.94;4987023;28;124735;-64
2024/03/28 11:20:59;;;;;;;3.75;1.45;;;;;;;12.80;57.24;98539.53;4979694;28;124672;-64
2024/03/28 11:23:26;;;;;;;4.30;1.63;;;;;;;12.85;57.25;98534.66;4964119;28;113571;-65
2024/03/28 11:26:03;;;;;;;1.88;1.45;;;;;;;12.91;57.25;98543.88;4972254;28;113056;-65
2024/03/28 11:28:31;;;;;;;3.58;1.67;;;;;;;12.99;57.36;98544.84;4969675;28;123936;-65
2024/03/28 11:30:57;;;;;;;3.35;1.73;;;;;;;13.14;57.34;98557.69;4982258;28;123785;-65
2024/03/28 11:33:34;;;;;;;4.30;2.10;;;;;;;13.27;57.36;98547.59;4979949;28;114483;-64